createdAt,value
2022-08-31T00:00:34.844Z,99957.56
2022-08-31T00:01:38.822Z,99957.56
2022-08-31T00:02:43.073Z,99957.41
2022-08-31T00:03:47.039Z,99959.31
2022-08-31T00:04:51.141Z,99954.06
2022-08-31T00:06:00.738Z,99949.22
2022-08-31T00:07:08.376Z,99949.22
2022-08-31T00:08:12.117Z,99954.92
2022-08-31T00:09:16.156Z,99957.94
2022-08-31T00:10:32.476Z,99957.94
2022-08-31T00:11:29.861Z,99962.33
2022-08-31T00:12:33.905Z,99958.16
2022-08-31T00:13:38.218Z,99958.77
2022-08-31T00:14:42.506Z,99960.88
2022-08-31T00:15:46.550Z,99963.61
2022-08-31T00:16:50.702Z,99963.61
2022-08-31T00:17:54.977Z,99964.52
2022-08-31T00:18:59.523Z,99969.98
2022-08-31T00:20:05.867Z,99969.98
2022-08-31T00:21:10.127Z,99967.00
2022-08-31T00:22:14.102Z,99967.00
2022-08-31T00:23:21.222Z,99967.00
2022-08-31T00:24:24.061Z,99962.83
2022-08-31T00:25:31.210Z,99962.83
2022-08-31T00:26:38.451Z,99960.34
2022-08-31T00:27:42.433Z,99961.63
2022-08-31T00:28:46.946Z,99961.63
2022-08-31T00:29:52.520Z,99966.25
2022-08-31T00:30:58.203Z,99966.25
2022-08-31T00:32:02.323Z,99965.63
2022-08-31T00:33:07.457Z,99962.53
2022-08-31T00:34:11.979Z,99959.80
2022-08-31T00:35:16.018Z,99960.22
2022-08-31T00:36:23.224Z,99966.30
2022-08-31T00:37:27.364Z,99966.30
2022-08-31T00:38:33.011Z,99964.63
2022-08-31T00:39:37.234Z,99962.95
2022-08-31T00:40:44.416Z,99973.86
2022-08-31T00:41:49.410Z,99973.86
2022-08-31T00:42:55.280Z,99967.58
2022-08-31T00:44:02.242Z,99964.23
2022-08-31T00:45:07.596Z,99968.86
2022-08-31T00:46:15.305Z,99961.12
2022-08-31T00:47:19.556Z,99963.84
2022-08-31T00:48:23.542Z,99969.92
2022-08-31T00:49:33.685Z,99966.37
2022-08-31T00:50:37.902Z,99970.13
2022-08-31T00:51:53.602Z,99977.28
2022-08-31T00:53:00.504Z,99975.59
2022-08-31T00:54:06.720Z,99969.30
2022-08-31T00:55:19.959Z,99979.39
2022-08-31T00:56:25.374Z,99976.88
2022-08-31T00:57:34.625Z,99977.94
2022-08-31T00:58:38.390Z,99977.56
2022-08-31T00:59:49.413Z,99973.14
2022-08-31T01:00:53.578Z,99977.77
2022-08-31T01:01:57.778Z,99972.76
2022-08-31T01:03:06.397Z,99971.07
2022-08-31T01:04:10.614Z,99967.72
2022-08-31T01:05:15.645Z,99962.71
2022-08-31T01:06:20.743Z,99966.48
2022-08-31T01:07:25.153Z,99966.48
2022-08-31T01:08:30.943Z,99964.81
2022-08-31T01:09:38.470Z,99969.03
2022-08-31T01:10:46.430Z,99969.27
2022-08-31T01:11:52.240Z,99969.27
2022-08-31T01:12:58.727Z,99968.64
2022-08-31T01:14:04.842Z,99968.64
2022-08-31T01:15:12.223Z,99969.92
2022-08-31T01:16:28.702Z,99969.92
2022-08-31T01:17:35.165Z,99969.92
2022-08-31T01:18:40.788Z,99962.39
2022-08-31T01:20:00.122Z,99969.13
2022-08-31T01:21:24.783Z,99971.02
2022-08-31T01:22:34.725Z,99970.42
2022-08-31T01:23:44.524Z,99970.42
2022-08-31T01:24:50.742Z,99971.70
2022-08-31T01:25:57.387Z,99966.06
2022-08-31T01:27:03.762Z,99969.00
2022-08-31T01:28:10.956Z,99967.10
2022-08-31T01:29:15.246Z,99967.10
2022-08-31T01:30:24.783Z,99967.55
2022-08-31T01:31:37.611Z,99973.00
2022-08-31T01:32:45.474Z,99973.44
2022-08-31T01:33:48.018Z,99973.44
2022-08-31T01:34:53.610Z,99969.05
2022-08-31T01:36:00.115Z,99969.26
2022-08-31T01:37:04.506Z,99971.16
2022-08-31T01:38:08.479Z,99971.16
2022-08-31T01:39:12.523Z,99931.23
2022-08-31T01:40:17.973Z,99961.73
2022-08-31T01:41:23.260Z,99961.73
2022-08-31T01:42:33.330Z,99961.73
2022-08-31T01:43:36.762Z,99968.25
2022-08-31T01:44:40.743Z,99968.25
2022-08-31T01:45:44.964Z,99955.89
2022-08-31T01:46:50.018Z,99964.30
2022-08-31T01:47:55.697Z,99966.17
2022-08-31T01:48:59.851Z,99963.68
2022-08-31T01:50:04.161Z,99963.68
2022-08-31T01:51:09.301Z,99960.12
2022-08-31T01:52:15.074Z,99960.12
2022-08-31T01:53:24.495Z,99964.30
2022-08-31T01:54:28.798Z,99965.96
2022-08-31T01:55:33.268Z,99965.96
2022-08-31T01:56:51.530Z,99965.96
2022-08-31T01:57:46.363Z,99963.68
2022-08-31T01:58:50.900Z,99965.58
2022-08-31T01:59:55.036Z,99960.95
2022-08-31T02:00:59.139Z,99959.27
2022-08-31T02:02:03.425Z,99959.27
2022-08-31T02:03:07.722Z,99961.98
2022-08-31T02:04:16.476Z,99957.60
2022-08-31T02:05:23.376Z,99957.60
2022-08-31T02:06:28.088Z,99960.33
2022-08-31T02:07:38.608Z,99965.78
2022-08-31T02:08:39.851Z,99955.94
2022-08-31T02:09:44.096Z,99952.59
2022-08-31T02:10:48.189Z,99951.97
2022-08-31T02:11:52.445Z,99949.23
2022-08-31T02:12:56.789Z,99948.17
2022-08-31T02:14:00.953Z,99950.07
2022-08-31T02:15:05.686Z,99944.23
2022-08-31T02:16:10.842Z,99953.23
2022-08-31T02:17:16.974Z,99953.23
2022-08-31T02:18:21.090Z,99944.44
2022-08-31T02:19:27.931Z,99936.26
2022-08-31T02:20:32.467Z,99942.57
2022-08-31T02:21:37.391Z,99940.05
2022-08-31T02:22:41.580Z,99946.33
2022-08-31T02:23:45.650Z,99946.33
2022-08-31T02:24:49.666Z,99947.39
2022-08-31T02:25:53.709Z,99942.15
2022-08-31T02:26:58.405Z,99942.15
2022-08-31T02:28:05.379Z,99945.94
2022-08-31T02:29:09.536Z,99949.70
2022-08-31T02:30:17.302Z,99939.23
2022-08-31T02:31:21.358Z,99942.20
2022-08-31T02:32:27.076Z,99947.65
2022-08-31T02:33:31.436Z,99949.75
2022-08-31T02:34:35.526Z,99944.73
2022-08-31T02:35:42.960Z,99944.73
2022-08-31T02:36:45.944Z,99940.55
2022-08-31T02:37:51.756Z,99940.55
2022-08-31T02:38:55.811Z,99942.63
2022-08-31T02:40:00.077Z,99942.23
2022-08-31T02:41:05.636Z,99938.88
2022-08-31T02:42:09.798Z,99941.60
2022-08-31T02:43:13.866Z,99948.95
2022-08-31T02:44:19.623Z,99942.04
2022-08-31T02:45:24.656Z,99942.04
2022-08-31T02:46:29.414Z,99941.41
2022-08-31T02:47:33.563Z,99949.58
2022-08-31T02:48:37.675Z,99949.58
2022-08-31T02:49:41.733Z,99944.37
2022-08-31T02:50:48.286Z,99943.94
2022-08-31T02:51:52.339Z,99941.66
2022-08-31T02:52:56.501Z,99941.66
2022-08-31T02:54:00.634Z,99947.10
2022-08-31T02:55:05.681Z,99947.53
2022-08-31T02:56:10.395Z,99947.53
2022-08-31T02:57:14.451Z,99949.86
2022-08-31T02:58:23.359Z,99949.86
2022-08-31T02:59:24.339Z,99945.05
2022-08-31T03:00:30.620Z,99943.59
2022-08-31T03:01:36.383Z,99943.59
2022-08-31T03:02:41.124Z,99942.77
2022-08-31T03:03:46.307Z,99940.67
2022-08-31T03:04:50.994Z,99942.77
2022-08-31T03:05:55.052Z,99942.77
2022-08-31T03:06:59.202Z,99942.77
2022-08-31T03:08:05.400Z,99938.34
2022-08-31T03:09:10.637Z,99934.80
2022-08-31T03:10:15.063Z,99937.52
2022-08-31T03:11:20.179Z,99944.86
2022-08-31T03:12:24.308Z,99943.59
2022-08-31T03:13:28.367Z,99943.59
2022-08-31T03:14:32.749Z,99942.33
2022-08-31T03:15:36.783Z,99949.67
2022-08-31T03:16:45.086Z,99949.44
2022-08-31T03:17:48.686Z,99953.85
2022-08-31T03:18:53.085Z,99953.85
2022-08-31T03:19:57.227Z,99956.14
2022-08-31T03:21:01.382Z,99953.61
2022-08-31T03:22:05.757Z,99954.84
2022-08-31T03:23:09.896Z,99954.84
2022-08-31T03:24:17.033Z,99954.83
2022-08-31T03:25:22.351Z,99951.41
2022-08-31T03:26:28.015Z,99952.61
2022-08-31T03:27:32.360Z,99952.61
2022-08-31T03:28:38.802Z,99959.62
2022-08-31T03:29:42.776Z,99960.61
2022-08-31T03:30:48.856Z,99966.19
2022-08-31T03:31:54.874Z,99969.03
2022-08-31T03:33:02.373Z,99969.03
2022-08-31T03:34:04.680Z,99966.44
2022-08-31T03:35:09.035Z,99960.39
2022-08-31T03:36:13.430Z,99960.27
2022-08-31T03:37:17.480Z,99963.11
2022-08-31T03:38:21.456Z,99956.90
2022-08-31T03:39:25.444Z,99966.61
2022-08-31T03:40:30.546Z,99967.57
2022-08-31T03:41:35.196Z,99961.34
2022-08-31T03:42:39.206Z,99965.81
2022-08-31T03:43:43.250Z,99966.70
2022-08-31T03:44:50.315Z,99974.72
2022-08-31T03:45:55.979Z,99954.32
2022-08-31T03:47:00.054Z,99954.32
2022-08-31T03:48:07.784Z,99962.98
2022-08-31T03:49:10.227Z,99968.45
2022-08-31T03:50:15.465Z,99968.45
2022-08-31T03:51:19.510Z,99962.67
2022-08-31T03:52:23.563Z,99962.67
2022-08-31T03:53:28.177Z,99965.84
2022-08-31T03:54:32.418Z,99966.73
2022-08-31T03:55:38.771Z,99966.73
2022-08-31T03:56:43.306Z,99966.38
2022-08-31T03:57:47.295Z,99966.38
2022-08-31T03:58:51.831Z,99965.62
2022-08-31T03:59:57.211Z,99963.78
2022-08-31T04:01:01.463Z,99959.80
2022-08-31T04:02:05.634Z,99964.77
2022-08-31T04:03:09.786Z,99965.92
2022-08-31T04:04:16.889Z,99970.58
2022-08-31T04:05:21.118Z,99936.07
2022-08-31T04:06:25.448Z,99971.34
2022-08-31T04:07:31.158Z,99968.21
2022-08-31T04:08:37.362Z,99970.20
2022-08-31T04:09:41.352Z,99970.87
2022-08-31T04:10:49.939Z,99970.87
2022-08-31T04:11:55.371Z,99968.20
2022-08-31T04:12:59.415Z,99968.20
2022-08-31T04:14:03.408Z,99969.55
2022-08-31T04:15:09.037Z,99975.52
2022-08-31T04:16:15.675Z,99968.89
2022-08-31T04:17:29.605Z,99968.89
2022-08-31T04:18:28.639Z,99971.48
2022-08-31T04:19:32.600Z,99972.39
2022-08-31T04:20:39.462Z,99973.66
2022-08-31T04:21:44.613Z,99973.66
2022-08-31T04:22:50.365Z,99975.71
2022-08-31T04:23:55.295Z,99982.27
2022-08-31T04:24:59.387Z,99985.45
2022-08-31T04:26:04.036Z,99985.45
2022-08-31T04:27:08.023Z,99974.09
2022-08-31T04:28:14.564Z,99984.33
2022-08-31T04:29:18.582Z,99984.33
2022-08-31T04:30:24.371Z,99978.39
2022-08-31T04:31:32.014Z,99978.39
2022-08-31T04:32:38.109Z,99985.47
2022-08-31T04:33:43.392Z,99989.97
2022-08-31T04:34:47.487Z,99852.73
2022-08-31T04:35:53.153Z,99852.73
2022-08-31T04:36:57.308Z,99990.67
2022-08-31T04:38:02.032Z,99986.33
2022-08-31T04:39:08.162Z,99986.33
2022-08-31T04:40:17.480Z,99983.20
2022-08-31T04:41:25.929Z,99983.20
2022-08-31T04:42:30.954Z,99974.58
2022-08-31T04:43:35.017Z,99979.56
2022-08-31T04:44:40.637Z,99979.56
2022-08-31T04:45:57.139Z,99980.28
2022-08-31T04:46:59.467Z,99981.75
2022-08-31T04:48:03.717Z,99981.75
2022-08-31T04:49:09.152Z,99985.37
2022-08-31T04:50:15.355Z,99973.59
2022-08-31T04:51:22.493Z,99979.98
2022-08-31T04:52:28.396Z,99977.80
2022-08-31T04:53:32.324Z,99980.38
2022-08-31T04:54:37.881Z,99981.56
2022-08-31T04:55:43.217Z,99979.35
2022-08-31T04:56:47.431Z,99979.35
2022-08-31T04:57:53.119Z,99981.86
2022-08-31T04:59:02.677Z,99987.42
2022-08-31T05:00:07.498Z,99981.95
2022-08-31T05:01:17.364Z,99986.94
2022-08-31T05:02:21.628Z,99986.94
2022-08-31T05:03:25.969Z,99978.70
2022-08-31T05:04:30.181Z,99987.02
2022-08-31T05:05:39.035Z,99990.32
2022-08-31T05:06:48.087Z,99992.29
2022-08-31T05:07:53.850Z,99993.65
2022-08-31T05:09:00.820Z,99993.65
2022-08-31T05:10:07.083Z,99992.58
2022-08-31T05:11:16.945Z,99992.04
2022-08-31T05:12:21.104Z,99992.04
2022-08-31T05:13:25.179Z,99992.58
2022-08-31T05:14:29.407Z,99988.18
2022-08-31T05:15:36.970Z,99990.40
2022-08-31T05:16:42.324Z,99996.45
2022-08-31T05:17:46.425Z,99986.25
2022-08-31T05:18:51.523Z,99983.41
2022-08-31T05:19:57.121Z,99988.58
2022-08-31T05:21:19.261Z,99993.56
2022-08-31T05:22:23.305Z,99994.18
2022-08-31T05:23:27.292Z,99994.18
2022-08-31T05:24:33.000Z,99990.89
2022-08-31T05:25:38.920Z,99988.14
2022-08-31T05:26:46.070Z,99990.84
2022-08-31T05:27:52.981Z,99988.09
2022-08-31T05:29:02.454Z,99988.09
2022-08-31T05:30:18.491Z,99990.59
2022-08-31T05:31:16.576Z,99992.58
2022-08-31T05:32:21.756Z,99994.80
2022-08-31T05:33:26.351Z,99990.94
2022-08-31T05:34:31.879Z,99987.60
2022-08-31T05:35:51.101Z,99985.42
2022-08-31T05:36:43.889Z,99990.36
2022-08-31T05:37:50.519Z,99990.36
2022-08-31T05:38:58.842Z,99993.98
2022-08-31T05:40:00.520Z,99993.98
2022-08-31T05:41:09.055Z,99985.22
2022-08-31T05:42:13.074Z,99993.27
2022-08-31T05:43:18.788Z,99994.96
2022-08-31T05:44:22.927Z,99994.96
2022-08-31T05:45:30.127Z,99982.89
2022-08-31T05:46:35.439Z,99982.89
2022-08-31T05:47:40.805Z,99992.81
2022-08-31T05:48:49.498Z,99993.66
2022-08-31T05:49:52.235Z,99993.66
2022-08-31T05:50:57.904Z,99995.60
2022-08-31T05:52:03.510Z,99992.59
2022-08-31T05:53:08.185Z,99989.27
2022-08-31T05:54:12.300Z,99989.27
2022-08-31T05:55:16.538Z,99993.09
2022-08-31T05:56:24.492Z,99991.38
2022-08-31T05:57:28.487Z,99994.09
2022-08-31T05:58:33.536Z,99994.09
2022-08-31T06:00:50.280Z,99996.78
2022-08-31T06:01:54.482Z,99994.80
2022-08-31T06:04:34.648Z,99986.55
2022-08-31T06:05:44.179Z,99991.23
2022-08-31T06:06:48.332Z,99988.06
2022-08-31T06:07:53.965Z,99988.06
2022-08-31T06:08:59.122Z,99988.14
2022-08-31T06:10:03.628Z,99988.14
2022-08-31T06:11:09.189Z,99989.02
2022-08-31T06:12:13.307Z,99990.70
2022-08-31T06:13:18.096Z,99992.87
2022-08-31T06:14:22.220Z,99987.89
2022-08-31T06:15:26.284Z,99987.37
2022-08-31T06:16:31.802Z,99995.68
2022-08-31T06:17:36.114Z,99995.68
2022-08-31T06:18:40.383Z,99989.64
2022-08-31T06:19:44.546Z,99990.27
2022-08-31T06:20:48.466Z,99984.80
2022-08-31T06:21:52.671Z,99984.36
2022-08-31T06:22:56.699Z,99984.36
2022-08-31T06:24:03.656Z,99984.28
2022-08-31T06:25:08.051Z,99988.72
2022-08-31T06:26:14.790Z,99983.81
2022-08-31T06:27:19.587Z,99983.81
2022-08-31T06:28:27.266Z,99981.94
2022-08-31T06:29:43.729Z,99984.47
2022-08-31T06:30:54.476Z,99986.42
2022-08-31T06:31:49.384Z,99986.42
2022-08-31T06:33:08.846Z,99987.35
2022-08-31T06:34:06.383Z,99987.35
2022-08-31T06:35:10.641Z,99987.38
2022-08-31T06:36:32.687Z,99987.38
2022-08-31T06:37:29.534Z,99986.57
2022-08-31T06:38:33.582Z,99985.77
2022-08-31T06:39:55.975Z,99989.35
2022-08-31T06:40:53.776Z,99983.59
2022-08-31T06:42:00.938Z,99992.37
2022-08-31T06:43:11.015Z,99992.37
2022-08-31T06:44:15.043Z,99998.70
2022-08-31T06:45:22.186Z,99998.70
2022-08-31T06:46:28.497Z,99989.85
2022-08-31T06:47:34.045Z,99992.87
2022-08-31T06:48:38.558Z,99993.64
2022-08-31T06:49:42.620Z,100004.14
2022-08-31T06:50:48.252Z,100004.14
2022-08-31T06:51:52.263Z,100001.38
2022-08-31T06:52:56.324Z,100001.38
2022-08-31T06:54:11.482Z,100004.63
2022-08-31T06:55:06.544Z,100004.63
2022-08-31T06:56:21.019Z,99996.87
2022-08-31T06:57:23.992Z,99997.92
2022-08-31T06:58:27.962Z,99997.92
2022-08-31T06:59:32.285Z,99997.92
2022-08-31T07:00:36.403Z,99996.84
2022-08-31T07:01:44.012Z,99996.05
2022-08-31T07:02:54.784Z,99996.05
2022-08-31T07:03:57.360Z,100002.07
2022-08-31T07:05:01.368Z,99993.80
2022-08-31T07:06:34.290Z,99993.80
2022-08-31T07:07:16.924Z,99994.63
2022-08-31T07:08:22.961Z,99994.63
2022-08-31T07:09:27.025Z,99999.56
2022-08-31T07:10:34.457Z,99998.48
2022-08-31T07:11:44.829Z,99998.48
2022-08-31T07:12:50.341Z,99991.41
2022-08-31T07:13:57.178Z,99996.12
2022-08-31T07:15:01.542Z,99996.12
2022-08-31T07:16:10.026Z,99997.84
2022-08-31T07:17:16.416Z,99998.70
2022-08-31T07:18:20.549Z,99988.77
2022-08-31T07:19:25.767Z,99999.84
2022-08-31T07:20:30.629Z,99993.23
2022-08-31T07:21:37.855Z,99992.13
2022-08-31T07:22:41.978Z,99992.13
2022-08-31T07:23:47.106Z,99990.47
2022-08-31T07:24:51.239Z,99992.98
2022-08-31T07:25:55.341Z,99992.98
2022-08-31T07:27:02.827Z,99989.38
2022-08-31T07:28:07.156Z,99999.36
2022-08-31T07:29:13.509Z,99991.06
2022-08-31T07:30:19.153Z,99991.06
2022-08-31T07:31:26.757Z,99981.69
2022-08-31T07:32:32.531Z,99981.69
2022-08-31T07:33:36.837Z,99984.14
2022-08-31T07:34:43.346Z,99987.58
2022-08-31T07:35:48.769Z,99994.70
2022-08-31T07:36:56.752Z,99994.70
2022-08-31T07:38:00.953Z,99990.52
2022-08-31T07:39:06.686Z,99994.67
2022-08-31T07:40:13.248Z,99990.30
2022-08-31T07:41:17.184Z,99990.30
2022-08-31T07:42:27.525Z,99992.79
2022-08-31T07:43:31.561Z,99997.61
2022-08-31T07:44:36.636Z,99995.97
2022-08-31T07:45:43.039Z,99991.59
2022-08-31T07:46:49.175Z,99991.59
2022-08-31T07:47:56.354Z,99997.97
2022-08-31T07:49:00.604Z,99997.97
2022-08-31T07:50:07.267Z,99984.78
2022-08-31T07:51:15.023Z,99984.78
2022-08-31T07:52:18.992Z,99979.27
2022-08-31T07:53:25.885Z,99988.09
2022-08-31T07:54:30.042Z,99988.09
2022-08-31T07:55:34.073Z,99988.66
2022-08-31T07:56:38.242Z,99988.92
2022-08-31T07:57:46.846Z,99985.07
2022-08-31T07:58:50.991Z,99990.86
2022-08-31T07:59:57.115Z,99986.72
2022-08-31T08:01:05.715Z,99985.34
2022-08-31T08:02:17.238Z,99978.72
2022-08-31T08:03:22.442Z,99978.72
2022-08-31T08:04:26.715Z,99982.83
2022-08-31T08:05:45.907Z,99981.45
2022-08-31T08:06:37.014Z,99982.83
2022-08-31T08:07:41.089Z,99980.63
2022-08-31T08:08:53.493Z,99973.45
2022-08-31T08:09:54.249Z,99973.45
2022-08-31T08:10:58.500Z,99974.02
2022-08-31T08:12:05.910Z,99973.19
2022-08-31T08:13:10.067Z,99970.95
2022-08-31T08:14:19.372Z,99970.95
2022-08-31T08:15:27.486Z,99970.13
2022-08-31T08:16:38.358Z,99970.13
2022-08-31T08:17:45.435Z,99970.95
2022-08-31T08:18:54.250Z,99973.45
2022-08-31T08:19:58.392Z,99967.62
2022-08-31T08:21:04.864Z,99964.59
2022-08-31T08:22:12.061Z,99967.62
2022-08-31T08:23:28.005Z,99977.87
2022-08-31T08:25:00.417Z,99977.87
2022-08-31T08:25:36.504Z,99967.33
2022-08-31T08:26:54.312Z,99958.48
2022-08-31T08:28:28.910Z,99962.36
2022-08-31T08:29:09.077Z,99957.38
2022-08-31T08:30:15.639Z,99955.44
2022-08-31T08:31:22.027Z,99966.20
2022-08-31T08:32:26.618Z,99966.20
2022-08-31T08:33:32.291Z,99954.03
2022-08-31T08:34:42.426Z,99959.84
2022-08-31T08:35:46.480Z,99961.25
2022-08-31T08:36:55.889Z,99961.25
2022-08-31T08:37:59.099Z,99952.42
2022-08-31T08:39:05.571Z,99952.42
2022-08-31T08:40:15.494Z,99956.31
2022-08-31T08:41:23.141Z,99950.78
2022-08-31T08:42:28.579Z,99955.17
2022-08-31T08:43:35.572Z,99955.17
2022-08-31T08:44:41.620Z,99956.84
2022-08-31T08:45:50.168Z,99956.84
2022-08-31T08:47:00.473Z,99961.47
2022-08-31T08:48:05.572Z,99961.47
2022-08-31T08:49:16.103Z,99955.91
2022-08-31T08:50:21.897Z,99954.70
2022-08-31T08:51:30.687Z,99953.48
2022-08-31T08:52:43.895Z,99953.48
2022-08-31T08:53:52.340Z,99963.66
2022-08-31T08:54:59.133Z,99948.16
2022-08-31T08:56:23.072Z,99948.16
2022-08-31T08:57:13.625Z,99956.17
2022-08-31T08:58:18.400Z,99943.84
2022-08-31T08:59:22.382Z,99947.75
2022-08-31T09:00:28.910Z,99954.66
2022-08-31T09:01:35.773Z,99954.66
2022-08-31T09:03:02.251Z,99946.99
2022-08-31T09:04:30.930Z,99946.99
2022-08-31T09:06:04.845Z,99948.47
2022-08-31T09:07:23.766Z,99949.35
2022-08-31T09:08:30.758Z,99949.35
2022-08-31T09:10:00.561Z,99941.37
2022-08-31T09:11:35.884Z,99944.93
2022-08-31T09:12:48.751Z,99930.56
2022-08-31T09:14:04.823Z,99948.50
2022-08-31T09:15:13.379Z,99935.78
2022-08-31T09:16:41.385Z,99935.78
2022-08-31T09:18:21.556Z,99941.20
2022-08-31T09:19:26.273Z,99941.20
2022-08-31T09:20:32.703Z,99946.17
2022-08-31T09:21:51.333Z,99950.77
2022-08-31T09:22:56.901Z,99950.77
2022-08-31T09:24:03.860Z,99952.08
2022-08-31T09:25:08.499Z,99952.08
2022-08-31T09:26:18.755Z,99935.48
2022-08-31T09:27:40.607Z,99942.51
2022-08-31T09:28:47.370Z,99941.47
2022-08-31T09:30:02.339Z,99941.47
2022-08-31T09:31:07.669Z,99942.55
2022-08-31T09:32:17.880Z,99942.55
2022-08-31T09:33:24.923Z,99934.38
2022-08-31T09:34:32.121Z,99931.67
2022-08-31T09:35:38.688Z,99931.74
2022-08-31T09:36:42.744Z,99931.74
2022-08-31T09:37:49.803Z,99931.78
2022-08-31T09:38:53.766Z,99933.77
2022-08-31T09:40:00.696Z,99933.77
2022-08-31T09:41:06.500Z,99929.16
2022-08-31T09:42:21.845Z,99926.98
2022-08-31T09:43:28.847Z,99926.98
2022-08-31T09:44:37.657Z,99930.31
2022-08-31T09:45:56.466Z,99932.24
2022-08-31T09:47:03.643Z,99932.24
2022-08-31T09:48:11.059Z,99925.86
2022-08-31T09:49:27.565Z,99927.54
2022-08-31T09:50:35.742Z,99926.77
2022-08-31T09:51:39.899Z,99926.47
2022-08-31T09:52:43.938Z,99920.42
2022-08-31T09:53:47.979Z,99932.55
2022-08-31T09:54:59.374Z,99923.70
2022-08-31T09:56:06.344Z,99929.23
2022-08-31T09:57:14.775Z,99929.23
2022-08-31T09:58:25.377Z,99925.34
2022-08-31T09:59:46.850Z,99925.34
2022-08-31T10:00:51.551Z,99917.60
2022-08-31T10:01:55.697Z,99917.60
2022-08-31T10:03:08.544Z,99923.70
2022-08-31T10:04:20.754Z,99917.87
2022-08-31T10:05:34.084Z,99924.52
2022-08-31T10:06:44.037Z,99922.02
2022-08-31T10:07:56.834Z,99917.05
2022-08-31T10:09:03.868Z,99909.31
2022-08-31T10:10:22.033Z,99920.09
2022-08-31T10:11:21.782Z,99921.47
2022-08-31T10:12:52.781Z,99916.45
2022-08-31T10:14:00.117Z,99916.45
2022-08-31T10:15:18.915Z,99920.53
2022-08-31T10:16:42.566Z,99915.25
2022-08-31T10:18:05.933Z,99922.95
2022-08-31T10:19:17.645Z,99922.95
2022-08-31T10:20:30.351Z,99915.75
2022-08-31T10:21:37.219Z,99916.25
2022-08-31T10:22:55.133Z,99924.73
2022-08-31T10:24:19.812Z,99924.73
2022-08-31T10:25:32.658Z,99922.20
2022-08-31T10:26:51.117Z,99924.07
2022-08-31T10:28:00.868Z,99926.29
2022-08-31T10:29:19.106Z,99921.82
2022-08-31T10:30:28.042Z,99926.58
2022-08-31T10:31:44.072Z,99926.13
2022-08-31T10:33:04.105Z,99927.28
2022-08-31T10:34:11.158Z,99937.03
2022-08-31T10:35:27.498Z,99937.03
2022-08-31T10:36:36.190Z,99921.54
2022-08-31T10:37:50.397Z,99921.54
2022-08-31T10:39:23.499Z,99917.97
2022-08-31T10:40:30.825Z,99926.29
2022-08-31T10:41:38.510Z,99926.29
2022-08-31T10:43:11.258Z,99921.02
2022-08-31T10:44:20.830Z,99921.02
2022-08-31T10:45:26.549Z,99924.05
2022-08-31T10:46:31.336Z,99919.08
2022-08-31T10:47:36.404Z,99919.08
2022-08-31T10:48:40.477Z,99919.08
2022-08-31T10:49:44.464Z,99922.36
2022-08-31T10:51:07.900Z,99922.36
2022-08-31T10:52:19.298Z,99922.59
2022-08-31T10:53:39.730Z,99919.61
2022-08-31T10:54:52.820Z,99916.30
2022-08-31T10:56:15.858Z,99907.45
2022-08-31T10:57:39.105Z,99907.45
2022-08-31T10:58:51.954Z,99915.97
2022-08-31T11:00:01.974Z,99915.97
2022-08-31T11:01:23.259Z,99913.95
2022-08-31T11:02:36.289Z,99914.72
2022-08-31T11:04:02.848Z,99914.50
2022-08-31T11:05:26.346Z,99916.09
2022-08-31T11:06:51.390Z,99916.09
2022-08-31T11:08:07.468Z,99907.53
2022-08-31T11:09:34.768Z,99917.77
2022-08-31T11:10:48.500Z,99917.77
2022-08-31T11:12:05.812Z,99902.27
2022-08-31T11:13:06.904Z,99908.89
2022-08-31T11:14:19.751Z,99910.28
2022-08-31T11:15:37.414Z,99910.28
2022-08-31T11:16:53.772Z,99912.03
2022-08-31T11:18:06.271Z,99911.77
2022-08-31T11:19:42.737Z,99907.39
2022-08-31T11:21:00.306Z,99898.08
2022-08-31T11:22:23.452Z,99900.84
2022-08-31T11:23:42.374Z,99900.84
2022-08-31T11:25:17.113Z,99905.27
2022-08-31T11:26:49.800Z,99904.42
2022-08-31T11:27:56.749Z,99902.41
2022-08-31T11:29:22.887Z,99910.44
2022-08-31T11:30:30.507Z,99910.44
2022-08-31T11:31:35.299Z,99904.61
2022-08-31T11:32:51.085Z,99904.61
2022-08-31T11:34:15.578Z,99904.61
2022-08-31T11:35:07.005Z,99899.38
2022-08-31T11:36:11.493Z,99899.38
2022-08-31T11:37:34.712Z,99894.69
2022-08-31T11:38:44.378Z,99894.69
2022-08-31T11:39:48.380Z,99897.73
2022-08-31T11:41:02.655Z,99902.16
2022-08-31T11:42:12.308Z,99890.84
2022-08-31T11:43:35.872Z,99890.84
2022-08-31T11:44:42.942Z,99890.25
2022-08-31T11:45:47.219Z,99890.25
2022-08-31T11:47:11.870Z,99895.14
2022-08-31T11:48:53.381Z,99895.14
2022-08-31T11:50:00.347Z,99896.73
2022-08-31T11:51:06.230Z,99897.84
2022-08-31T11:52:25.584Z,99898.38
2022-08-31T11:53:38.053Z,99898.38
2022-08-31T11:54:52.572Z,99897.23
2022-08-31T11:56:00.339Z,99897.48
2022-08-31T11:57:06.211Z,99897.48
2022-08-31T11:58:13.239Z,99890.61
2022-08-31T11:59:34.102Z,99898.66
2022-08-31T12:00:57.476Z,99894.55
2022-08-31T12:02:22.178Z,99892.86
2022-08-31T12:03:35.087Z,99886.20
2022-08-31T12:04:43.656Z,99886.20
2022-08-31T12:05:48.722Z,99879.87
2022-08-31T12:06:55.850Z,99880.98
2022-08-31T12:08:04.118Z,99871.92
2022-08-31T12:09:18.273Z,99868.56
2022-08-31T12:10:34.727Z,99866.89
2022-08-31T12:11:56.529Z,99878.98
2022-08-31T12:13:21.686Z,99875.66
2022-08-31T12:14:34.954Z,99872.11
2022-08-31T12:15:47.752Z,99872.11
2022-08-31T12:16:57.774Z,99872.11
2022-08-31T12:18:04.777Z,99875.72
2022-08-31T12:19:35.735Z,99879.08
2022-08-31T12:20:57.586Z,99879.08
2022-08-31T12:22:10.759Z,99877.63
2022-08-31T12:23:30.069Z,99877.63
2022-08-31T12:24:36.310Z,99886.97
2022-08-31T12:25:56.764Z,99894.37
2022-08-31T12:27:06.587Z,99886.11
2022-08-31T12:28:46.888Z,99893.84
2022-08-31T12:29:49.742Z,99888.39
2022-08-31T12:30:57.089Z,99888.39
2022-08-31T12:32:18.846Z,99889.76
2022-08-31T12:33:31.700Z,99884.02
2022-08-31T12:34:38.837Z,99881.84
2022-08-31T12:35:42.984Z,99881.84
2022-08-31T12:36:47.214Z,99888.52
2022-08-31T12:38:08.177Z,99886.13
2022-08-31T12:39:24.658Z,99886.13
2022-08-31T12:40:35.145Z,99878.14
2022-08-31T12:41:42.216Z,99877.91
2022-08-31T12:42:59.629Z,99871.00
2022-08-31T12:44:04.580Z,99871.00
2022-08-31T12:45:12.849Z,99877.61
2022-08-31T12:46:38.652Z,99877.61
2022-08-31T12:47:59.993Z,99882.80
2022-08-31T12:49:24.800Z,99884.31
2022-08-31T12:50:47.408Z,99874.08
2022-08-31T12:52:25.856Z,99890.36
2022-08-31T12:53:34.174Z,99890.36
2022-08-31T12:54:46.883Z,99879.59
2022-08-31T12:56:00.099Z,99884.81
2022-08-31T12:57:16.343Z,99887.86
2022-08-31T12:58:26.665Z,99887.86
2022-08-31T13:00:00.144Z,99884.59
2022-08-31T13:00:51.618Z,99881.84
2022-08-31T13:01:59.694Z,99892.38
2022-08-31T13:03:23.284Z,99892.38
2022-08-31T13:04:28.328Z,99878.20
2022-08-31T13:05:35.486Z,99889.40
2022-08-31T13:06:40.302Z,99890.04
2022-08-31T13:07:44.559Z,99889.50
2022-08-31T13:08:50.363Z,99891.69
2022-08-31T13:10:09.236Z,99891.69
2022-08-31T13:11:22.876Z,99889.44
2022-08-31T13:12:26.952Z,99890.58
2022-08-31T13:13:35.507Z,99890.58
2022-08-31T13:14:43.575Z,99891.83
2022-08-31T13:15:50.119Z,99878.30
2022-08-31T13:17:15.693Z,99882.20
2022-08-31T13:18:25.449Z,99886.36
2022-08-31T13:19:32.676Z,99891.05
2022-08-31T13:20:42.106Z,99890.80
2022-08-31T13:21:57.186Z,99889.73
2022-08-31T13:23:02.579Z,99889.73
2022-08-31T13:24:11.552Z,99901.04
2022-08-31T13:25:24.963Z,99887.59